createdAt,value
2023-02-07T00:04:24.110Z,104379.06
2023-02-07T00:14:45.691Z,104368.53
2023-02-07T00:25:07.075Z,104372.69
2023-02-07T00:35:28.419Z,104362.09
2023-02-07T00:45:49.836Z,104338.25
2023-02-07T00:56:11.761Z,104346.72
2023-02-07T01:06:34.319Z,104342.72
2023-02-07T01:16:55.710Z,104349.97
2023-02-07T01:27:17.059Z,104348.00
2023-02-07T01:37:38.415Z,104359.59
2023-02-07T01:48:01.649Z,104344.69
2023-02-07T01:58:23.617Z,104320.75
2023-02-07T02:08:45.253Z,104318.00
2023-02-07T02:19:15.789Z,104334.69
2023-02-07T02:29:49.536Z,104324.78
2023-02-07T02:40:25.289Z,104320.00
2023-02-07T02:50:48.115Z,104337.03
2023-02-07T03:01:28.471Z,104335.06
2023-02-07T03:12:06.083Z,104322.72
2023-02-07T03:22:28.809Z,104314.78
2023-02-07T03:32:52.425Z,104318.41
2023-02-07T03:43:15.849Z,104317.53
2023-02-07T03:53:37.266Z,104323.91
2023-02-07T04:03:58.727Z,104320.06
2023-02-07T04:14:21.383Z,104323.78
2023-02-07T04:24:42.761Z,104305.44
2023-02-07T04:35:04.217Z,104310.63
2023-02-07T04:45:25.659Z,104283.97
2023-02-07T04:55:50.841Z,104283.16
2023-02-07T05:06:13.073Z,104277.69
2023-02-07T05:16:34.495Z,104289.91
2023-02-07T05:26:55.844Z,104294.78
2023-02-07T05:37:17.205Z,104304.34
2023-02-07T05:47:38.589Z,104310.50
2023-02-07T05:57:59.993Z,104329.69
2023-02-07T06:08:21.358Z,104330.69
2023-02-07T06:18:42.730Z,104346.56
2023-02-07T06:29:04.161Z,104349.97
2023-02-07T06:39:25.539Z,104362.06
2023-02-07T06:49:47.553Z,104369.41
2023-02-07T07:00:09.256Z,104367.16
2023-02-07T07:10:30.750Z,104381.13
2023-02-07T07:20:55.814Z,104382.03
2023-02-07T07:31:17.283Z,104382.91
2023-02-07T07:41:38.661Z,104399.41
2023-02-07T07:52:00.105Z,104394.59
2023-02-07T08:02:21.472Z,104386.72
2023-02-07T08:12:44.222Z,104386.25
2023-02-07T08:23:05.736Z,104370.19
2023-02-07T08:33:30.002Z,104361.47
2023-02-07T08:43:51.676Z,104358.28
2023-02-07T08:54:13.122Z,104365.44
2023-02-07T09:04:36.427Z,104371.25
2023-02-07T09:14:57.897Z,104367.94
2023-02-07T09:25:19.312Z,104368.47
2023-02-07T09:35:42.159Z,104343.91
2023-02-07T09:46:07.011Z,104347.22
2023-02-07T09:56:29.615Z,104344.69
2023-02-07T10:06:55.074Z,104363.44
2023-02-07T10:17:31.059Z,104355.69
2023-02-07T10:28:22.498Z,104348.22
2023-02-07T10:39:03.304Z,104337.66
2023-02-07T10:49:31.782Z,104336.25
2023-02-07T10:59:59.274Z,104324.78
2023-02-07T11:10:23.613Z,104318.47
2023-02-07T11:20:49.383Z,104299.88
2023-02-07T11:31:14.553Z,104289.31
2023-02-07T11:41:38.823Z,104275.72
2023-02-07T11:52:01.893Z,104274.03
2023-02-07T12:02:24.899Z,104271.72
2023-02-07T12:12:49.851Z,104274.09
2023-02-07T12:23:39.167Z,104275.66
2023-02-07T12:34:01.446Z,104277.69
2023-02-07T12:44:25.917Z,104271.88
2023-02-07T12:55:07.982Z,104285.94
2023-02-07T13:05:37.633Z,104262.81
2023-02-07T13:16:21.390Z,104272.22
2023-02-07T13:26:48.228Z,104258.19
2023-02-07T13:37:17.063Z,104254.03
2023-02-07T13:47:49.487Z,104241.84
2023-02-07T13:58:48.717Z,104235.78
2023-02-07T14:09:10.053Z,104248.03
2023-02-07T14:19:40.559Z,104255.72
2023-02-07T14:30:20.514Z,104247.28
2023-02-07T14:40:42.000Z,104244.91
2023-02-07T14:51:05.244Z,104242.81
2023-02-07T15:01:26.756Z,104253.38
2023-02-07T15:11:54.041Z,104253.44
2023-02-07T15:22:30.138Z,104237.50
2023-02-07T15:32:51.581Z,104246.31
2023-02-07T15:43:24.441Z,104256.75
2023-02-07T15:53:49.045Z,104253.06
2023-02-07T16:04:10.472Z,104250.75
2023-02-07T16:14:32.967Z,104258.19
2023-02-07T16:24:54.410Z,104244.66
2023-02-07T16:35:23.614Z,104244.00
2023-02-07T16:45:45.038Z,104252.69
2023-02-07T16:56:06.821Z,104250.25
2023-02-07T17:06:29.681Z,104235.28
2023-02-07T17:16:51.847Z,104225.09
2023-02-07T17:27:13.250Z,104217.38
2023-02-07T17:37:36.488Z,104237.56
2023-02-07T17:47:57.946Z,104219.69
2023-02-07T17:58:19.361Z,104238.72
2023-02-07T18:08:41.313Z,104237.66
2023-02-07T18:19:03.659Z,104247.72
2023-02-07T18:29:25.033Z,104270.94
2023-02-07T18:39:47.035Z,104273.41
2023-02-07T18:50:08.878Z,104269.50
2023-02-07T19:00:30.243Z,104276.00
2023-02-07T19:10:59.537Z,104265.41
2023-02-07T19:21:23.795Z,104259.69
2023-02-07T19:31:45.217Z,104249.56
2023-02-07T19:42:06.650Z,104248.91
2023-02-07T19:52:29.070Z,104258.66
2023-02-07T20:02:50.430Z,104249.84
2023-02-07T20:13:12.276Z,104249.84
2023-02-07T20:23:34.314Z,104243.50
2023-02-07T20:33:57.464Z,104246.16
2023-02-07T20:44:20.435Z,104236.38
2023-02-07T20:54:41.778Z,104251.28
2023-02-07T21:05:03.212Z,104264.72
2023-02-07T21:15:24.557Z,104265.44
2023-02-07T21:25:46.233Z,104271.13
2023-02-07T21:36:07.671Z,104270.06
2023-02-07T21:46:30.407Z,104275.66
2023-02-07T21:56:51.883Z,104278.88
2023-02-07T22:07:13.331Z,104275.97
2023-02-07T22:17:34.710Z,104268.00
2023-02-07T22:27:56.253Z,104268.50
2023-02-07T22:38:17.610Z,104263.22
2023-02-07T22:48:39.108Z,104267.22
2023-02-07T22:59:00.507Z,104268.38
2023-02-07T23:09:22.175Z,104259.75
2023-02-07T23:19:43.523Z,104248.50
2023-02-07T23:30:05.114Z,104242.50
2023-02-07T23:40:26.834Z,104253.41
2023-02-07T23:50:55.464Z,104240.34
